Time,TemperatureF,DewpointF,PressureIn,WindDirection,WindDirectionDegrees,WindSpeedMPH,WindSpeedGustMPH,Humidity,HourlyPrecipIn,Conditions,Clouds,dailyrainin,SoftwareType,DateUTC
2013-03-31 00:01:00,56.5,45.7,30.06,North,8,0.0,0.0,67,0.00,,CLR,0.00,VWS V14.01,2013-03-31 07:01:00,
2013-03-31 00:07:00,56.3,45.5,30.06,North,8,0.0,0.0,67,0.00,,CLR,0.00,VWS V14.01,2013-03-31 07:07:00,
2013-03-31 00:13:00,56.3,45.5,30.06,North,8,0.0,0.0,67,0.00,,CLR,0.00,VWS V14.01,2013-03-31 07:13:00,
2013-03-31 00:18:00,56.3,45.5,30.06,North,8,0.0,0.0,67,0.00,,CLR,0.00,VWS V14.01,2013-03-31 07:18:00,
2013-03-31 00:24:00,56.3,45.5,30.09,North,8,0.0,0.0,67,0.00,,CLR,0.00,VWS V14.01,2013-03-31 07:24:00,
2013-03-31 00:29:00,56.5,45.7,30.09,North,8,0.0,0.0,67,0.00,,CLR,0.00,VWS V14.01,2013-03-31 07:29:00,
2013-03-31 00:35:00,56.6,45.8,30.09,North,8,0.0,0.0,67,0.00,,CLR,0.00,VWS V14.01,2013-03-31 07:35:00,
2013-03-31 00:40:00,57.0,46.6,30.09,North,8,0.0,0.0,68,0.00,,BKN013,0.00,VWS V14.01,2013-03-31 07:40:00,
2013-03-31 00:45:00,57.2,46.7,30.09,West,281,3.6,3.6,68,0.00,,BKN013,0.00,VWS V14.01,2013-03-31 07:45:00,
2013-03-31 00:51:00,58.1,48.4,30.09,WNW,300,2.7,3.6,70,0.00,,BKN013,0.00,VWS V14.01,2013-03-31 07:51:00,
2013-03-31 00:57:00,58.4,49.5,30.09,WNW,283,3.6,4.9,72,0.00,,BKN013,0.00,VWS V14.01,2013-03-31 07:57:00,
2013-03-31 01:03:00,58.8,49.4,30.09,WSW,252,3.6,3.6,71,0.00,,BKN013,0.00,VWS V14.01,2013-03-31 08:03:00,
2013-03-31 01:09:00,59.0,48.8,30.09,WSW,247,0.0,5.8,69,0.00,,BKN013,0.00,VWS V14.01,2013-03-31 08:09:00,
2013-03-31 01:14:00,59.0,48.5,30.09,SW,217,3.1,3.6,68,0.00,,BKN013,0.00,VWS V14.01,2013-03-31 08:14:00,
2013-03-31 01:19:00,59.0,48.0,30.09,SW,236,0.0,2.7,67,0.00,,BKN013,0.00,VWS V14.01,2013-03-31 08:19:00,
2013-03-31 01:25:00,59.2,47.8,30.09,SSW,200,0.0,2.7,66,0.00,,BKN013,0.00,VWS V14.01,2013-03-31 08:25:00,
2013-03-31 01:31:00,59.2,47.8,30.09,SSW,197,0.0,2.2,66,0.00,,BKN013,0.00,VWS V14.01,2013-03-31 08:31:00,
2013-03-31 01:36:00,59.0,47.7,30.09,SSW,197,0.0,0.0,66,0.00,,OVC016,0.00,VWS V14.01,2013-03-31 08:36:00,
2013-03-31 01:42:00,59.0,47.7,30.09,SSW,197,0.0,0.0,66,0.00,,OVC016,0.00,VWS V14.01,2013-03-31 08:42:00,
2013-03-31 01:48:00,59.0,47.7,30.06,SSW,197,0.0,0.0,66,0.00,,OVC016,0.00,VWS V14.01,2013-03-31 08:48:00,
2013-03-31 01:53:00,59.0,48.0,30.06,SSW,197,0.0,2.7,67,0.00,,OVC016,0.00,VWS V14.01,2013-03-31 08:53:00,
2013-03-31 01:59:00,59.2,48.2,30.06,SE,129,4.0,4.0,67,0.00,,OVC016,0.00,VWS V14.01,2013-03-31 08:59:00,
2013-03-31 02:05:00,59.2,48.2,30.06,ESE,111,0.0,0.0,67,0.00,,OVC016,0.00,VWS V14.01,2013-03-31 09:05:00,
2013-03-31 02:10:00,59.2,48.2,30.06,ESE,111,0.0,0.0,67,0.00,,OVC016,0.00,VWS V14.01,2013-03-31 09:10:00,
2013-03-31 02:16:00,59.0,48.0,30.06,ESE,115,0.0,0.0,67,0.00,,OVC016,0.00,VWS V14.01,2013-03-31 09:16:00,
2013-03-31 02:22:00,59.0,48.0,30.06,SE,138,0.0,4.0,67,0.00,,OVC016,0.00,VWS V14.01,2013-03-31 09:22:00,
2013-03-31 02:27:00,59.0,48.0,30.06,SE,138,0.0,0.0,67,0.00,,OVC016,0.00,VWS V14.01,2013-03-31 09:27:00,
2013-03-31 02:32:00,59.2,48.2,30.06,SE,138,0.0,0.0,67,0.00,,OVC016,0.00,VWS V14.01,2013-03-31 09:32:00,
2013-03-31 02:37:00,59.2,48.2,30.06,SE,136,3.6,3.6,67,0.00,,OVC020,0.00,VWS V14.01,2013-03-31 09:37:00,
2013-03-31 02:43:00,59.2,48.2,30.06,SE,136,0.0,0.0,67,0.00,,OVC020,0.00,VWS V14.01,2013-03-31 09:43:00,
2013-03-31 02:48:00,59.2,47.8,30.06,SE,136,0.0,0.0,66,0.00,,OVC020,0.00,VWS V14.01,2013-03-31 09:48:00,
2013-03-31 02:54:00,59.2,47.8,30.06,SE,136,0.0,3.1,66,0.00,,OVC020,0.00,VWS V14.01,2013-03-31 09:54:00,
2013-03-31 02:59:00,59.2,47.8,30.06,SE,136,0.0,0.0,66,0.00,,OVC020,0.00,VWS V14.01,2013-03-31 09:59:00,
2013-03-31 03:04:00,59.2,47.8,30.06,SE,136,0.0,0.0,66,0.00,,OVC020,0.00,VWS V14.01,2013-03-31 10:04:00,
2013-03-31 03:09:00,59.2,47.8,30.06,SE,136,0.0,2.7,66,0.00,,OVC020,0.00,VWS V14.01,2013-03-31 10:09:00,
2013-03-31 03:15:00,59.2,47.8,30.06,East,95,0.0,0.0,66,0.00,,OVC020,0.00,VWS V14.01,2013-03-31 10:15:00,
2013-03-31 03:20:00,59.2,47.8,30.06,SE,145,3.6,3.6,66,0.00,,OVC020,0.00,VWS V14.01,2013-03-31 10:20:00,
2013-03-31 03:26:00,59.2,47.8,30.06,SE,133,0.0,2.7,66,0.00,,OVC020,0.00,VWS V14.01,2013-03-31 10:26:00,
2013-03-31 03:32:00,59.2,47.8,30.06,ESE,106,0.0,3.6,66,0.00,,OVC020,0.00,VWS V14.01,2013-03-31 10:32:00,
2013-03-31 03:37:00,59.3,48.0,30.06,ESE,105,0.0,0.0,66,0.00,,OVC014,0.00,VWS V14.01,2013-03-31 10:37:00,
2013-03-31 03:42:00,59.2,47.4,30.06,SE,142,3.1,3.6,65,0.00,,OVC014,0.00,VWS V14.01,2013-03-31 10:42:00,
2013-03-31 03:47:00,59.2,47.4,30.06,SE,142,0.0,0.0,65,0.00,,OVC014,0.00,VWS V14.01,2013-03-31 10:47:00,
2013-03-31 03:53:00,59.2,47.4,30.06,SE,142,0.0,0.0,65,0.00,,OVC014,0.00,VWS V14.01,2013-03-31 10:53:00,
2013-03-31 03:58:00,59.2,47.4,30.06,SE,142,0.0,0.0,65,0.00,,OVC014,0.00,VWS V14.01,2013-03-31 10:58:00,
2013-03-31 04:04:00,59.2,47.4,30.06,SE,142,0.0,0.0,65,0.00,,OVC014,0.00,VWS V14.01,2013-03-31 11:04:00,
2013-03-31 04:09:00,59.2,47.4,30.06,SE,142,0.0,0.0,65,0.00,,OVC014,0.00,VWS V14.01,2013-03-31 11:09:00,
2013-03-31 04:15:00,59.2,47.4,30.06,SE,142,0.0,0.0,65,0.00,,OVC014,0.00,VWS V14.01,2013-03-31 11:15:00,
2013-03-31 04:20:00,59.2,47.4,30.06,SE,142,0.0,0.0,65,0.00,,OVC014,0.00,VWS V14.01,2013-03-31 11:20:00,
2013-03-31 04:26:00,59.2,47.8,30.06,SE,142,0.0,0.0,66,0.00,,OVC014,0.00,VWS V14.01,2013-03-31 11:26:00,
2013-03-31 04:31:00,59.2,47.8,30.06,SE,142,0.0,0.0,66,0.00,,OVC014,0.00,VWS V14.01,2013-03-31 11:31:00,
2013-03-31 04:37:00,59.2,47.8,30.06,SE,142,0.0,0.0,66,0.00,,OVC085,0.00,VWS V14.01,2013-03-31 11:37:00,
2013-03-31 04:43:00,59.2,47.4,30.06,SE,142,0.0,0.0,65,0.00,,OVC085,0.00,VWS V14.01,2013-03-31 11:43:00,
2013-03-31 04:48:00,59.0,47.2,30.06,SE,142,0.0,0.0,65,0.00,,OVC085,0.00,VWS V14.01,2013-03-31 11:48:00,
2013-03-31 04:53:00,59.0,47.2,30.06,SE,142,0.0,0.0,65,0.00,,OVC021,0.00,VWS V14.01,2013-03-31 11:53:00,
2013-03-31 04:58:00,58.8,47.5,30.06,SE,142,0.0,0.0,66,0.00,,OVC021,0.00,VWS V14.01,2013-03-31 11:58:00,
2013-03-31 05:03:00,58.6,47.3,30.06,SE,142,0.0,0.0,66,0.00,,OVC021,0.00,VWS V14.01,2013-03-31 12:03:00,
2013-03-31 05:08:00,58.6,47.3,30.06,SE,142,0.0,0.0,66,0.00,,OVC021,0.00,VWS V14.01,2013-03-31 12:08:00,
2013-03-31 05:14:00,58.4,47.1,30.06,SE,142,0.0,0.0,66,0.00,,OVC021,0.00,VWS V14.01,2013-03-31 12:14:00,
2013-03-31 05:19:00,58.4,47.1,30.06,SE,142,0.0,0.0,66,0.00,,OVC021,0.00,VWS V14.01,2013-03-31 12:19:00,
2013-03-31 05:25:00,58.4,47.1,30.06,SE,142,0.0,0.0,66,0.00,,OVC021,0.00,VWS V14.01,2013-03-31 12:25:00,
2013-03-31 05:30:00,58.4,47.5,30.06,SE,142,0.0,0.0,67,0.00,,OVC021,0.00,VWS V14.01,2013-03-31 12:30:00,
2013-03-31 05:36:00,58.4,47.5,30.06,SE,142,0.0,0.0,67,0.00,,OVC065,0.00,VWS V14.01,2013-03-31 12:36:00,
2013-03-31 05:41:00,58.4,47.5,30.06,SE,142,0.0,0.0,67,0.00,,OVC065,0.00,VWS V14.01,2013-03-31 12:41:00,
2013-03-31 05:47:00,58.6,47.7,30.06,SE,142,0.0,0.0,67,0.00,,OVC065,0.00,VWS V14.01,2013-03-31 12:47:00,
2013-03-31 05:53:00,58.6,48.1,30.06,SE,142,0.0,0.0,68,0.00,,OVC065,0.00,VWS V14.01,2013-03-31 12:53:00,
2013-03-31 05:58:00,58.8,48.3,30.06,SE,142,0.0,0.0,68,0.00,,OVC065,0.00,VWS V14.01,2013-03-31 12:58:00,
2013-03-31 06:04:00,58.8,47.9,30.06,SE,142,0.0,0.0,67,0.00,,OVC065,0.00,VWS V14.01,2013-03-31 13:04:00,
2013-03-31 06:09:00,59.0,48.0,30.06,SE,142,0.0,0.0,67,0.00,,OVC065,0.00,VWS V14.01,2013-03-31 13:09:00,
2013-03-31 06:14:00,59.0,48.0,30.06,SE,142,2.7,2.7,67,0.00,,OVC065,0.00,VWS V14.01,2013-03-31 13:14:00,
2013-03-31 06:19:00,59.2,47.8,30.06,SE,142,0.0,0.0,66,0.00,,OVC065,0.00,VWS V14.01,2013-03-31 13:19:00,
2013-03-31 06:24:00,59.2,47.8,30.06,SE,142,0.0,0.0,66,0.00,,OVC065,0.00,VWS V14.01,2013-03-31 13:24:00,
2013-03-31 06:30:00,59.2,47.4,30.06,SE,142,0.0,0.0,65,0.00,,OVC065,0.00,VWS V14.01,2013-03-31 13:30:00,
2013-03-31 06:35:00,59.2,47.4,30.06,SE,136,0.0,0.0,65,0.00,,OVC015,0.00,VWS V14.01,2013-03-31 13:35:00,
2013-03-31 06:41:00,59.2,47.4,30.06,SE,136,0.0,0.0,65,0.00,,OVC015,0.00,VWS V14.01,2013-03-31 13:41:00,
2013-03-31 06:47:00,59.2,47.0,30.06,ESE,109,0.0,2.2,64,0.00,,OVC015,0.00,VWS V14.01,2013-03-31 13:47:00,
2013-03-31 06:53:00,59.2,47.0,30.06,SE,140,0.0,3.6,64,0.00,,OVC015,0.00,VWS V14.01,2013-03-31 13:53:00,
2013-03-31 06:58:00,59.2,46.6,30.06,SE,129,0.0,2.7,63,0.00,,OVC015,0.00,VWS V14.01,2013-03-31 13:58:00,
2013-03-31 07:04:00,59.3,47.2,30.06,ESE,103,0.0,0.0,64,0.00,,OVC015,0.00,VWS V14.01,2013-03-31 14:04:00,
2013-03-31 07:10:00,59.3,47.2,30.06,SE,129,4.0,4.0,64,0.00,,OVC015,0.00,VWS V14.01,2013-03-31 14:10:00,
2013-03-31 07:15:00,59.3,46.8,30.06,East,83,0.0,4.0,63,0.00,,OVC015,0.00,VWS V14.01,2013-03-31 14:15:00,
2013-03-31 07:21:00,59.5,47.3,30.06,East,83,0.0,3.6,64,0.00,,OVC015,0.00,VWS V14.01,2013-03-31 14:21:00,
2013-03-31 07:26:00,59.3,46.8,30.06,East,84,0.0,0.0,63,0.00,,OVC015,0.00,VWS V14.01,2013-03-31 14:26:00,
2013-03-31 07:32:00,59.5,46.9,30.06,East,84,0.0,0.0,63,0.00,,OVC015,0.00,VWS V14.01,2013-03-31 14:32:00,
2013-03-31 07:37:00,59.5,46.9,30.06,SE,130,0.0,2.2,63,0.00,,OVC013,0.00,VWS V14.01,2013-03-31 14:37:00,
2013-03-31 07:43:00,59.5,46.5,30.06,ESE,114,0.0,3.1,62,0.00,,OVC013,0.00,VWS V14.01,2013-03-31 14:43:00,
2013-03-31 07:49:00,59.7,46.7,30.06,East,94,0.0,3.1,62,0.00,,OVC013,0.00,VWS V14.01,2013-03-31 14:49:00,
2013-03-31 07:54:00,59.9,46.8,30.06,East,90,4.9,4.9,62,0.00,,OVC013,0.00,VWS V14.01,2013-03-31 14:54:00,
2013-03-31 08:00:00,59.9,46.4,30.06,ESE,119,3.1,3.1,61,0.00,,OVC013,0.00,VWS V14.01,2013-03-31 15:00:00,
2013-03-31 08:05:00,60.1,46.2,30.06,SE,127,2.7,2.7,60,0.00,,OVC013,0.00,VWS V14.01,2013-03-31 15:05:00,
2013-03-31 08:11:00,60.4,46.0,30.06,ESE,102,0.0,3.6,59,0.00,,OVC013,0.00,VWS V14.01,2013-03-31 15:11:00,
2013-03-31 08:17:00,60.8,45.5,30.06,ESE,120,2.7,2.7,57,0.00,,OVC013,0.00,VWS V14.01,2013-03-31 15:17:00,
2013-03-31 08:22:00,61.0,45.2,30.06,SE,134,3.6,3.6,56,0.00,,OVC013,0.00,VWS V14.01,2013-03-31 15:22:00,
2013-03-31 08:27:00,61.0,44.7,30.06,SE,136,0.0,3.6,55,0.00,,OVC013,0.00,VWS V14.01,2013-03-31 15:27:00,
2013-03-31 08:32:00,61.3,45.0,30.06,SE,131,2.7,3.6,55,0.00,,OVC013,0.00,VWS V14.01,2013-03-31 15:32:00,
2013-03-31 08:38:00,61.5,44.7,30.06,East,94,2.2,4.0,54,0.00,,OVC013,0.00,VWS V14.01,2013-03-31 15:38:00,
2013-03-31 08:43:00,62.0,45.2,30.06,NE,48,4.9,4.9,54,0.00,,OVC013,0.00,VWS V14.01,2013-03-31 15:43:00,
2013-03-31 08:49:00,62.4,44.0,30.06,SE,141,0.0,3.6,51,0.00,,OVC013,0.00,VWS V14.01,2013-03-31 15:49:00,
2013-03-31 08:55:00,62.4,43.5,30.06,SE,138,2.7,3.6,50,0.00,,OVC013,0.00,VWS V14.01,2013-03-31 15:55:00,
2013-03-31 09:00:00,62.2,43.4,30.06,SE,130,3.1,3.1,50,0.00,,OVC013,0.00,VWS V14.01,2013-03-31 16:00:00,
2013-03-31 09:06:00,62.2,43.4,30.09,SE,141,5.8,6.3,50,0.00,,OVC013,0.00,VWS V14.01,2013-03-31 16:06:00,
2013-03-31 09:12:00,62.6,43.2,30.09,SE,128,2.7,4.9,49,0.00,,OVC013,0.00,VWS V14.01,2013-03-31 16:12:00,
2013-03-31 09:17:00,62.9,43.0,30.09,South,177,3.6,4.9,48,0.00,,OVC013,0.00,VWS V14.01,2013-03-31 16:17:00,
2013-03-31 09:23:00,63.1,42.6,30.09,ESE,116,2.2,3.6,47,0.00,,OVC013,0.00,VWS V14.01,2013-03-31 16:23:00,
2013-03-31 09:28:00,63.5,42.9,30.09,ESE,122,0.0,0.0,47,0.00,,OVC013,0.00,VWS V14.01,2013-03-31 16:28:00,
2013-03-31 09:34:00,63.5,42.9,30.09,SSW,203,2.2,4.0,47,0.00,,OVC013,0.00,VWS V14.01,2013-03-31 16:34:00,
2013-03-31 09:40:00,63.8,43.2,30.09,SSW,198,4.0,4.9,47,0.00,,OVC015,0.00,VWS V14.01,2013-03-31 16:40:00,
2013-03-31 09:45:00,64.2,43.0,30.09,SSW,213,0.0,0.0,46,0.00,,OVC015,0.00,VWS V14.01,2013-03-31 16:45:00,
2013-03-31 09:50:00,64.0,42.8,30.09,SSW,195,5.4,5.4,46,0.00,,OVC015,0.00,VWS V14.01,2013-03-31 16:50:00,
2013-03-31 09:55:00,64.0,42.8,30.09,South,191,3.6,4.0,46,0.00,,OVC015,0.00,VWS V14.01,2013-03-31 16:55:00,
2013-03-31 10:00:00,64.2,43.6,30.09,SSW,197,4.0,4.9,47,0.00,,OVC015,0.00,VWS V14.01,2013-03-31 17:00:00,
2013-03-31 10:06:00,64.4,43.2,30.09,SE,135,3.6,3.6,46,0.00,,OVC015,0.00,VWS V14.01,2013-03-31 17:06:00,
2013-03-31 10:12:00,64.4,43.7,30.09,SW,231,2.7,3.6,47,0.00,,OVC015,0.00,VWS V14.01,2013-03-31 17:12:00,
2013-03-31 10:18:00,64.4,44.3,30.09,SW,228,3.1,5.4,48,0.00,,OVC015,0.00,VWS V14.01,2013-03-31 17:18:00,
2013-03-31 10:23:00,64.2,44.1,30.09,SE,136,2.7,3.6,48,0.00,,OVC015,0.00,VWS V14.01,2013-03-31 17:23:00,
2013-03-31 10:28:00,64.4,44.3,30.09,SW,218,5.4,6.3,48,0.00,,OVC015,0.00,VWS V14.01,2013-03-31 17:28:00,
2013-03-31 10:33:00,64.9,45.3,30.09,SSW,193,3.6,4.9,49,0.00,,OVC015,0.00,VWS V14.01,2013-03-31 17:33:00,
2013-03-31 10:38:00,65.1,44.9,30.09,SE,143,2.7,4.0,48,0.00,,OVC013,0.00,VWS V14.01,2013-03-31 17:38:00,
2013-03-31 10:44:00,65.3,44.0,30.09,South,185,3.6,4.0,46,0.00,,OVC013,0.00,VWS V14.01,2013-03-31 17:44:00,
2013-03-31 10:50:00,65.3,44.0,30.09,South,184,4.0,4.9,46,0.00,,OVC013,0.00,VWS V14.01,2013-03-31 17:50:00,
2013-03-31 10:57:00,65.6,43.8,30.09,SW,230,2.7,3.6,45,0.00,,OVC013,0.00,VWS V14.01,2013-03-31 17:57:00,
2013-03-31 11:02:00,66.0,43.5,30.09,SE,146,4.9,5.4,44,0.00,,OVC013,0.00,VWS V14.01,2013-03-31 18:02:00,
2013-03-31 11:07:00,66.4,43.2,30.09,South,172,5.4,5.8,43,0.00,,OVC013,0.00,VWS V14.01,2013-03-31 18:07:00,
2013-03-31 11:12:00,66.4,42.6,30.09,SW,227,3.6,5.4,42,0.00,,OVC013,0.00,VWS V14.01,2013-03-31 18:12:00,
2013-03-31 11:17:00,67.6,44.3,30.09,SE,144,11.0,11.4,43,0.00,,OVC013,0.00,VWS V14.01,2013-03-31 18:17:00,
2013-03-31 11:23:00,68.5,41.9,30.09,SE,137,4.0,5.4,38,0.00,,OVC013,0.00,VWS V14.01,2013-03-31 18:23:00,
2013-03-31 11:29:00,69.4,41.3,30.09,SW,229,2.7,4.0,36,0.00,,OVC013,0.00,VWS V14.01,2013-03-31 18:29:00,
2013-03-31 11:34:00,69.2,40.5,30.09,SE,136,6.3,8.1,35,0.00,,OVC013,0.00,VWS V14.01,2013-03-31 18:34:00,
2013-03-31 11:40:00,68.5,41.2,30.09,SSW,203,7.6,8.1,37,0.00,,OVC015,0.00,VWS V14.01,2013-03-31 18:40:00,
2013-03-31 11:45:00,68.3,41.1,30.09,SW,217,5.8,8.1,37,0.00,,OVC015,0.00,VWS V14.01,2013-03-31 18:45:00,
2013-03-31 11:51:00,68.2,41.6,30.09,SW,225,8.1,8.3,38,0.00,,OVC015,0.00,VWS V14.01,2013-03-31 18:51:00,
2013-03-31 11:56:00,67.8,41.3,30.09,SSW,198,3.1,7.2,38,0.00,,OVC015,0.00,VWS V14.01,2013-03-31 18:56:00,
2013-03-31 12:01:00,67.4,41.6,30.09,SSW,213,6.3,7.6,39,0.00,,OVC015,0.00,VWS V14.01,2013-03-31 19:01:00,
2013-03-31 12:07:00,68.3,42.5,30.09,SSW,207,3.6,6.7,39,0.00,,OVC015,0.00,VWS V14.01,2013-03-31 19:07:00,
2013-03-31 12:12:00,69.1,41.7,30.09,SSW,198,4.9,6.3,37,0.00,,OVC015,0.00,VWS V14.01,2013-03-31 19:12:00,
2013-03-31 12:18:00,69.6,41.5,30.09,SSE,155,6.3,6.3,36,0.00,,OVC015,0.00,VWS V14.01,2013-03-31 19:18:00,
2013-03-31 12:23:00,68.5,40.5,30.09,ESE,120,8.1,10.1,36,0.00,,OVC015,0.00,VWS V14.01,2013-03-31 19:23:00,
2013-03-31 12:29:00,69.1,40.3,30.09,SSW,193,6.3,7.6,35,0.00,,OVC015,0.00,VWS V14.01,2013-03-31 19:29:00,
2013-03-31 12:34:00,67.6,40.5,30.09,South,170,6.3,10.1,37,0.00,,OVC015,0.00,VWS V14.01,2013-03-31 19:34:00,
2013-03-31 12:40:00,69.1,41.7,30.09,South,181,5.4,6.3,37,0.00,,OVC017,0.00,VWS V14.01,2013-03-31 19:40:00,
2013-03-31 12:46:00,70.0,41.1,30.09,SSE,164,5.4,6.7,35,0.00,,OVC017,0.00,VWS V14.01,2013-03-31 19:46:00,
2013-03-31 12:51:00,70.0,41.1,30.09,SW,228,5.4,5.8,35,0.00,,OVC017,0.00,VWS V14.01,2013-03-31 19:51:00,
2013-03-31 12:57:00,70.5,40.8,30.09,South,188,8.3,8.3,34,0.00,,OVC017,0.00,VWS V14.01,2013-03-31 19:57:00,
2013-03-31 13:03:00,69.8,40.2,30.09,South,187,5.8,8.1,34,0.00,,OVC017,0.00,VWS V14.01,2013-03-31 20:03:00,
2013-03-31 13:08:00,70.1,40.5,30.06,South,173,7.6,9.2,34,0.00,,OVC017,0.00,VWS V14.01,2013-03-31 20:08:00,
2013-03-31 13:14:00,69.8,40.9,30.06,SSW,196,5.8,6.3,35,0.00,,OVC017,0.00,VWS V14.01,2013-03-31 20:14:00,
2013-03-31 13:19:00,69.6,40.8,30.06,South,184,6.3,8.7,35,0.00,,OVC017,0.00,VWS V14.01,2013-03-31 20:19:00,
2013-03-31 13:25:00,69.6,40.8,30.06,South,184,4.0,7.6,35,0.00,,OVC017,0.00,VWS V14.01,2013-03-31 20:25:00,
2013-03-31 13:30:00,69.6,41.5,30.06,SSW,192,6.3,8.1,36,0.00,,OVC017,0.00,VWS V14.01,2013-03-31 20:30:00,
2013-03-31 13:36:00,70.0,41.8,30.06,SSW,205,8.1,8.1,36,0.00,,BKN060,0.00,VWS V14.01,2013-03-31 20:36:00,
2013-03-31 13:41:00,70.3,41.4,30.06,ESE,118,5.8,5.8,35,0.00,,BKN060,0.00,VWS V14.01,2013-03-31 20:41:00,
2013-03-31 13:46:00,70.0,42.5,30.06,SE,136,6.3,7.6,37,0.00,,BKN060,0.00,VWS V14.01,2013-03-31 20:46:00,
2013-03-31 13:52:00,70.5,41.6,30.06,WSW,249,4.9,6.3,35,0.00,,BKN060,0.00,VWS V14.01,2013-03-31 20:52:00,
2013-03-31 13:57:00,70.5,40.0,30.06,South,173,4.0,6.3,33,0.00,,BKN060,0.00,VWS V14.01,2013-03-31 20:57:00,
2013-03-31 14:02:00,69.8,40.2,30.06,SSW,200,7.6,8.3,34,0.00,,BKN060,0.00,VWS V14.01,2013-03-31 21:02:00,
2013-03-31 14:07:00,69.8,40.2,30.06,South,186,6.7,9.6,34,0.00,,BKN060,0.00,VWS V14.01,2013-03-31 21:07:00,
2013-03-31 14:13:00,69.6,40.0,30.06,SSW,198,6.3,8.1,34,0.00,,BKN060,0.00,VWS V14.01,2013-03-31 21:13:00,
2013-03-31 14:18:00,69.6,40.8,30.03,WSW,243,5.4,8.1,35,0.00,,BKN060,0.00,VWS V14.01,2013-03-31 21:18:00,
2013-03-31 14:24:00,69.1,40.3,30.03,South,177,3.1,8.3,35,0.00,,BKN060,0.00,VWS V14.01,2013-03-31 21:24:00,
2013-03-31 14:29:00,68.7,40.7,30.03,SSW,193,4.0,7.6,36,0.00,,BKN060,0.00,VWS V14.01,2013-03-31 21:29:00,
2013-03-31 14:35:00,70.7,41.7,30.03,WSW,237,5.4,8.1,35,0.00,,BKN060,0.00,VWS V14.01,2013-03-31 21:35:00,
2013-03-31 14:40:00,71.6,41.0,30.03,SSE,148,10.1,10.1,33,0.00,,BKN055,0.00,VWS V14.01,2013-03-31 21:40:00,
2013-03-31 14:46:00,71.2,39.9,30.03,WSW,238,8.1,8.1,32,0.00,,BKN055,0.00,VWS V14.01,2013-03-31 21:46:00,
2013-03-31 14:52:00,70.7,39.4,30.03,SSW,204,6.3,8.7,32,0.00,,BKN055,0.00,VWS V14.01,2013-03-31 21:52:00,
2013-03-31 14:57:00,71.0,39.7,30.03,SSW,204,10.1,10.1,32,0.00,,BKN055,0.00,VWS V14.01,2013-03-31 21:57:00,
2013-03-31 15:03:00,70.0,39.6,30.03,SSW,206,6.7,10.1,33,0.00,,BKN055,0.00,VWS V14.01,2013-03-31 22:03:00,
2013-03-31 15:09:00,70.9,39.6,30.03,SSE,151,4.9,8.7,32,0.00,,BKN055,0.00,VWS V14.01,2013-03-31 22:09:00,
2013-03-31 15:15:00,71.2,40.7,30.03,SSW,209,4.9,8.3,33,0.00,,BKN055,0.00,VWS V14.01,2013-03-31 22:15:00,
2013-03-31 15:20:00,71.8,40.3,30.03,SSW,209,7.6,8.7,32,0.00,,BKN055,0.00,VWS V14.01,2013-03-31 22:20:00,
2013-03-31 15:25:00,71.9,40.5,30.03,South,186,8.3,10.1,32,0.00,,BKN055,0.00,VWS V14.01,2013-03-31 22:25:00,
2013-03-31 15:31:00,71.4,40.0,30.03,SSW,210,5.8,8.3,32,0.00,,BKN055,0.00,VWS V14.01,2013-03-31 22:31:00,
2013-03-31 15:37:00,70.9,40.4,30.03,WSW,237,6.3,6.3,33,0.00,,BKN048,0.00,VWS V14.01,2013-03-31 22:37:00,
2013-03-31 15:42:00,70.5,40.0,30.03,SSW,192,8.7,8.7,33,0.00,,BKN048,0.00,VWS V14.01,2013-03-31 22:42:00,
2013-03-31 15:47:00,71.2,41.4,30.03,South,171,4.0,6.3,34,0.00,,BKN048,0.00,VWS V14.01,2013-03-31 22:47:00,
2013-03-31 15:52:00,71.0,40.5,30.03,South,186,8.7,10.5,33,0.00,,BKN048,0.00,VWS V14.01,2013-03-31 22:52:00,
2013-03-31 15:58:00,71.0,41.3,30.03,WSW,237,6.3,6.3,34,0.00,,BKN048,0.00,VWS V14.01,2013-03-31 22:58:00,
2013-03-31 16:03:00,70.7,41.0,30.03,SSW,192,5.8,8.3,34,0.00,,BKN048,0.00,VWS V14.01,2013-03-31 23:03:00,
2013-03-31 16:09:00,69.6,40.0,30.03,SSW,210,5.4,7.6,34,0.00,,BKN048,0.00,VWS V14.01,2013-03-31 23:09:00,
2013-03-31 16:15:00,70.9,41.1,30.03,South,187,5.4,8.7,34,0.00,,BKN048,0.00,VWS V14.01,2013-03-31 23:15:00,
2013-03-31 16:20:00,69.8,39.4,30.03,SSW,202,5.8,8.1,33,0.00,,BKN048,0.00,VWS V14.01,2013-03-31 23:20:00,
2013-03-31 16:26:00,69.1,40.3,30.03,SSW,205,8.3,10.5,35,0.00,,BKN048,0.00,VWS V14.01,2013-03-31 23:26:00,
2013-03-31 16:31:00,68.7,41.4,30.03,SW,220,3.6,5.8,37,0.00,,BKN048,0.00,VWS V14.01,2013-03-31 23:31:00,
2013-03-31 16:37:00,68.7,42.1,30.00,SSW,206,7.6,8.7,38,0.00,,BKN046,0.00,VWS V14.01,2013-03-31 23:37:00,
2013-03-31 16:43:00,68.7,41.4,30.00,SW,229,6.7,6.7,37,0.00,,BKN046,0.00,VWS V14.01,2013-03-31 23:43:00,
2013-03-31 16:48:00,68.5,41.2,30.00,SSW,204,6.3,8.1,37,0.00,,BKN046,0.00,VWS V14.01,2013-03-31 23:48:00,
2013-03-31 16:54:00,67.6,41.1,30.00,WSW,240,6.3,9.2,38,0.00,,BKN046,0.00,VWS V14.01,2013-03-31 23:54:00,
2013-03-31 16:59:00,68.0,42.1,30.00,SSE,163,8.7,10.5,39,0.00,,BKN046,0.00,VWS V14.01,2013-03-31 23:59:00,
2013-03-31 17:05:00,66.4,42.0,30.00,SW,226,8.3,15.0,41,0.00,,BKN046,0.00,VWS V14.01,2013-04-01 00:05:00,
2013-03-31 17:10:00,66.4,42.6,30.00,WSW,247,5.4,10.5,42,0.00,,BKN046,0.00,VWS V14.01,2013-04-01 00:10:00,
2013-03-31 17:16:00,65.6,42.6,30.00,WSW,243,7.6,9.2,43,0.00,,BKN046,0.00,VWS V14.01,2013-04-01 00:16:00,
2013-03-31 17:22:00,65.3,42.2,30.00,West,277,8.1,10.1,43,0.00,,BKN046,0.00,VWS V14.01,2013-04-01 00:22:00,
2013-03-31 17:27:00,64.2,41.8,30.00,West,278,6.7,11.0,44,0.00,,BKN046,0.00,VWS V14.01,2013-04-01 00:27:00,
2013-03-31 17:33:00,64.4,42.0,30.00,West,281,10.1,10.1,44,0.00,,BKN046,0.00,VWS V14.01,2013-04-01 00:33:00,
2013-03-31 17:39:00,64.4,40.8,30.00,WSW,258,12.3,12.3,42,0.00,,BKN046,0.00,VWS V14.01,2013-04-01 00:39:00,
2013-03-31 17:44:00,64.4,40.2,30.00,NW,307,7.6,11.0,41,0.00,,BKN046,0.00,VWS V14.01,2013-04-01 00:44:00,
2013-03-31 17:50:00,64.2,38.8,30.00,West,279,8.7,8.7,39,0.00,,BKN046,0.00,VWS V14.01,2013-04-01 00:50:00,
2013-03-31 17:56:00,64.9,39.4,30.00,West,278,8.1,8.1,39,0.00,,BKN046,0.00,VWS V14.01,2013-04-01 00:56:00,
2013-03-31 18:02:00,65.6,38.7,30.00,WNW,291,5.4,8.1,37,0.00,,BKN046,0.00,VWS V14.01,2013-04-01 01:02:00,
2013-03-31 18:08:00,65.6,38.0,30.00,West,268,2.7,7.6,36,0.00,,BKN046,0.00,VWS V14.01,2013-04-01 01:08:00,
2013-03-31 18:14:00,66.2,37.8,30.00,NNW,331,3.6,7.6,35,0.00,,BKN046,0.00,VWS V14.01,2013-04-01 01:14:00,
2013-03-31 18:20:00,66.5,38.1,30.00,WSW,258,5.8,5.8,35,0.00,,BKN046,0.00,VWS V14.01,2013-04-01 01:20:00,
2013-03-31 18:27:00,65.8,38.2,30.00,NW,322,4.9,5.8,36,0.00,,BKN046,0.00,VWS V14.01,2013-04-01 01:27:00,
2013-03-31 18:32:00,65.5,37.8,30.00,NW,313,2.7,5.4,36,0.00,,BKN046,0.00,VWS V14.01,2013-04-01 01:32:00,
2013-03-31 18:37:00,65.1,38.9,30.03,WNW,286,6.3,6.7,38,0.00,,OVC043,0.00,VWS V14.01,2013-04-01 01:37:00,
2013-03-31 18:43:00,64.7,39.9,30.03,WNW,294,5.8,8.7,40,0.00,,OVC043,0.00,VWS V14.01,2013-04-01 01:43:00,
2013-03-31 18:48:00,64.6,40.3,30.03,NW,318,3.1,5.8,41,0.00,,OVC043,0.00,VWS V14.01,2013-04-01 01:48:00,
2013-03-31 18:54:00,64.0,41.7,30.03,West,267,5.4,8.3,44,0.00,,OVC043,0.00,VWS V14.01,2013-04-01 01:54:00,
2013-03-31 18:59:00,63.8,42.1,30.03,WSW,254,8.3,8.3,45,0.00,,OVC043,0.00,VWS V14.01,2013-04-01 01:59:00,
2013-03-31 19:05:00,63.3,43.3,30.03,WNW,296,7.6,9.2,48,0.00,,OVC043,0.00,VWS V14.01,2013-04-01 02:05:00,
2013-03-31 19:10:00,62.8,44.4,30.03,West,268,2.7,5.8,51,0.00,,OVC043,0.00,VWS V14.01,2013-04-01 02:10:00,
2013-03-31 19:16:00,62.2,44.4,30.03,West,273,7.6,8.3,52,0.00,,OVC043,0.00,VWS V14.01,2013-04-01 02:16:00,
2013-03-31 19:21:00,62.2,44.9,30.03,West,271,4.9,5.4,53,0.00,,OVC043,0.00,VWS V14.01,2013-04-01 02:21:00,
2013-03-31 19:27:00,62.0,44.7,30.03,WNW,297,5.8,6.3,53,0.00,,OVC043,0.00,VWS V14.01,2013-04-01 02:27:00,
2013-03-31 19:32:00,61.5,45.2,30.03,WSW,250,8.1,10.1,55,0.00,,OVC043,0.00,VWS V14.01,2013-04-01 02:32:00,
2013-03-31 19:37:00,61.5,45.2,30.03,WNW,284,5.8,5.8,55,0.00,,OVC060,0.00,VWS V14.01,2013-04-01 02:37:00,
2013-03-31 19:43:00,61.3,44.5,30.03,WNW,289,6.3,8.7,54,0.00,,OVC060,0.00,VWS V14.01,2013-04-01 02:43:00,
2013-03-31 19:49:00,61.1,44.9,30.03,West,260,8.7,8.7,55,0.00,,OVC060,0.00,VWS V14.01,2013-04-01 02:49:00,
2013-03-31 19:54:00,60.8,45.0,30.03,SW,236,5.8,9.2,56,0.00,,OVC060,0.00,VWS V14.01,2013-04-01 02:54:00,
2013-03-31 20:00:00,60.6,45.8,30.03,WSW,241,6.3,6.3,58,0.00,,OVC060,0.00,VWS V14.01,2013-04-01 03:00:00,
2013-03-31 20:06:00,60.6,45.8,30.03,WNW,284,8.1,8.1,58,0.00,,OVC060,0.00,VWS V14.01,2013-04-01 03:06:00,
2013-03-31 20:12:00,60.8,45.9,30.03,West,264,5.4,6.3,58,0.00,,OVC060,0.00,VWS V14.01,2013-04-01 03:12:00,
2013-03-31 20:17:00,60.6,45.8,30.03,West,265,5.4,8.1,58,0.00,,OVC060,0.00,VWS V14.01,2013-04-01 03:17:00,
2013-03-31 20:22:00,60.6,45.3,30.03,WNW,288,7.6,8.7,57,0.00,,OVC060,0.00,VWS V14.01,2013-04-01 03:22:00,
2013-03-31 20:27:00,60.6,44.8,30.03,West,276,6.3,6.3,56,0.00,,OVC060,0.00,VWS V14.01,2013-04-01 03:27:00,
2013-03-31 20:33:00,60.4,45.1,30.03,West,278,4.9,7.6,57,0.00,,OVC060,0.00,VWS V14.01,2013-04-01 03:33:00,
2013-03-31 20:39:00,60.4,45.1,30.03,West,268,8.7,8.7,57,0.00,,OVC013,0.00,VWS V14.01,2013-04-01 03:39:00,
2013-03-31 20:44:00,60.4,45.6,30.03,West,265,4.0,4.9,58,0.00,,OVC013,0.00,VWS V14.01,2013-04-01 03:44:00,
2013-03-31 20:49:00,60.6,45.8,30.06,WSW,254,5.4,5.8,58,0.00,,OVC013,0.00,VWS V14.01,2013-04-01 03:49:00,
2013-03-31 20:55:00,60.6,46.2,30.06,SW,228,8.1,8.1,59,0.00,,OVC013,0.00,VWS V14.01,2013-04-01 03:55:00,
2013-03-31 21:00:00,60.4,46.5,30.06,WNW,284,6.7,9.6,60,0.00,,OVC013,0.00,VWS V14.01,2013-04-01 04:00:00,
2013-03-31 21:02:00,60.2,46.8,30.06,WSW,251,10.1,10.1,61,0.00,,OVC013,0.00,VWS V14.01,2013-04-01 04:02:00,
2013-03-31 21:05:00,60.2,47.2,30.06,SW,227,5.4,10.1,62,0.00,,OVC013,0.00,VWS V14.01,2013-04-01 04:05:00,
2013-03-31 21:06:00,60.1,47.0,30.06,SW,229,6.7,8.7,62,0.00,,OVC013,0.00,VWS V14.01,2013-04-01 04:06:00,
2013-03-31 21:11:00,60.1,47.0,30.06,West,273,3.6,5.8,62,0.00,,OVC013,0.00,VWS V14.01,2013-04-01 04:11:00,
2013-03-31 21:13:00,59.9,46.8,30.06,WSW,238,8.3,8.7,62,0.00,,OVC013,0.00,VWS V14.01,2013-04-01 04:13:00,
2013-03-31 21:18:00,59.5,46.9,30.06,WSW,240,5.4,8.3,63,0.00,,OVC013,0.00,VWS V14.01,2013-04-01 04:18:00,
2013-03-31 21:24:00,59.5,47.8,30.06,WNW,284,4.0,4.9,65,0.00,,OVC013,0.00,VWS V14.01,2013-04-01 04:24:00,
2013-03-31 21:29:00,59.2,47.4,30.06,WSW,247,4.9,7.6,65,0.00,,OVC013,0.00,VWS V14.01,2013-04-01 04:29:00,
2013-03-31 21:35:00,59.2,47.4,30.06,WSW,251,2.7,4.0,65,0.00,,OVC013,0.00,VWS V14.01,2013-04-01 04:35:00,
2013-03-31 21:41:00,59.2,47.0,30.06,WSW,246,4.0,4.0,64,0.00,,OVC014,0.00,VWS V14.01,2013-04-01 04:41:00,
2013-03-31 21:46:00,59.2,47.0,30.06,WSW,251,4.9,5.4,64,0.00,,OVC014,0.00,VWS V14.01,2013-04-01 04:46:00,
2013-03-31 21:52:00,59.2,46.6,30.06,West,275,5.4,7.6,63,0.00,,OVC014,0.00,VWS V14.01,2013-04-01 04:52:00,
2013-03-31 21:58:00,59.2,46.6,30.06,WNW,291,5.4,8.1,63,0.00,,OVC014,0.00,VWS V14.01,2013-04-01 04:58:00,
2013-03-31 22:03:00,59.0,46.4,30.06,West,278,3.6,7.6,63,0.00,,OVC014,0.00,VWS V14.01,2013-04-01 05:03:00,
2013-03-31 22:08:00,59.0,45.6,30.06,West,280,5.8,7.2,61,0.00,,OVC014,0.00,VWS V14.01,2013-04-01 05:08:00,
2013-03-31 22:14:00,59.0,45.1,30.06,SW,226,3.6,5.8,60,0.00,,OVC014,0.00,VWS V14.01,2013-04-01 05:14:00,
2013-03-31 22:19:00,59.0,45.1,30.09,WSW,251,5.8,6.3,60,0.00,,OVC014,0.00,VWS V14.01,2013-04-01 05:19:00,
2013-03-31 22:24:00,58.8,45.0,30.09,WNW,298,8.3,8.3,60,0.00,,OVC014,0.00,VWS V14.01,2013-04-01 05:24:00,
2013-03-31 22:30:00,58.8,45.4,30.09,WNW,301,5.4,5.8,61,0.00,,OVC014,0.00,VWS V14.01,2013-04-01 05:30:00,
2013-03-31 22:36:00,58.8,45.4,30.09,West,276,3.1,8.1,61,0.00,,OVC009,0.00,VWS V14.01,2013-04-01 05:36:00,
2013-03-31 22:41:00,58.6,45.2,30.09,West,267,5.4,5.8,61,0.00,,OVC009,0.00,VWS V14.01,2013-04-01 05:41:00,
2013-03-31 22:46:00,58.6,45.7,30.09,WNW,298,4.9,6.3,62,0.00,,OVC009,0.00,VWS V14.01,2013-04-01 05:46:00,
2013-03-31 22:52:00,58.4,45.5,30.09,WSW,245,5.4,5.8,62,0.00,,OVC009,0.00,VWS V14.01,2013-04-01 05:52:00,
2013-03-31 22:58:00,58.4,45.9,30.09,West,265,5.4,5.8,63,0.00,,OVC009,0.00,VWS V14.01,2013-04-01 05:58:00,
2013-03-31 23:04:00,58.3,46.2,30.09,West,264,3.1,4.9,64,0.00,,OVC009,0.00,VWS V14.01,2013-04-01 06:04:00,
2013-03-31 23:09:00,58.3,46.2,30.09,West,275,2.7,4.9,64,0.00,,OVC009,0.00,VWS V14.01,2013-04-01 06:09:00,
2013-03-31 23:15:00,58.3,46.2,30.09,West,275,2.7,5.4,64,0.00,,OVC009,0.00,VWS V14.01,2013-04-01 06:15:00,
2013-03-31 23:20:00,58.1,45.6,30.06,WSW,258,3.6,4.9,63,0.00,,OVC009,0.00,VWS V14.01,2013-04-01 06:20:00,
2013-03-31 23:26:00,58.1,46.0,30.06,WNW,303,3.6,5.4,64,0.00,,OVC009,0.00,VWS V14.01,2013-04-01 06:26:00,
2013-03-31 23:31:00,57.9,45.4,30.06,NW,319,0.0,4.9,63,0.00,,OVC009,0.00,VWS V14.01,2013-04-01 06:31:00,
2013-03-31 23:36:00,57.9,45.8,30.06,West,265,4.0,4.0,64,0.00,,OVC011,0.00,VWS V14.01,2013-04-01 06:36:00,
2013-03-31 23:41:00,57.9,45.8,30.06,WNW,293,3.6,3.6,64,0.00,,OVC011,0.00,VWS V14.01,2013-04-01 06:41:00,
2013-03-31 23:46:00,57.9,45.8,30.06,WNW,297,4.0,4.0,64,0.00,,OVC011,0.00,VWS V14.01,2013-04-01 06:46:00,
2013-03-31 23:51:00,57.7,46.0,30.06,West,280,4.9,5.4,65,0.00,,OVC011,0.00,VWS V14.01,2013-04-01 06:51:00,
2013-03-31 23:57:00,57.9,46.2,30.06,WNW,300,4.0,6.3,65,0.00,,OVC011,0.00,VWS V14.01,2013-04-01 06:57:00,